Time;durP1;ratioP1;P1;durP2;ratioP2;P2;SDS_P1;SDS_P2;PMS_P1;PMS_P2;Temp;Humidity;BMP_temperature;BMP_pressure;BME280_temperature;BME280_humidity;BME280_pressure;Samples;Min_cycle;Max_cycle;Signal;HPM_P1;HPM_P2
2023/01/08 00:01:34;;;;;;;1.30;1.20;;;;;;;6.19;75.86;95073.53;4368726;32;20184;-61
2023/01/08 00:03:59;;;;;;;1.10;0.87;;;;;;;6.22;75.56;95070.37;4379116;32;20398;-60
2023/01/08 00:06:24;;;;;;;1.70;1.60;;;;;;;5.89;76.85;95058.66;4379439;32;20193;-61
2023/01/08 00:08:50;;;;;;;1.70;1.00;;;;;;;6.07;76.59;95062.53;4381953;32;20192;-61
2023/01/08 00:11:16;;;;;;;0.53;0.53;;;;;;;6.06;76.34;95056.47;4376110;32;20277;-50
2023/01/08 00:13:41;;;;;;;0.57;0.57;;;;;;;8.49;100.00;95036.75;4377803;32;20189;-53
2023/01/08 00:16:09;;;;;;;0.97;0.87;;;;;;;10.06;100.00;95026.03;4390999;32;20214;-52
2023/01/08 00:18:35;;;;;;;0.77;0.77;;;;;;;10.52;100.00;95019.78;4375317;32;20180;-53
2023/01/08 00:21:00;;;;;;;1.47;1.40;;;;;;;10.85;95.88;95013.12;4376393;32;20291;-61
2023/01/08 00:23:26;;;;;;;0.83;0.83;;;;;;;10.98;70.72;95014.97;4382440;32;20258;-61
2023/01/08 00:25:52;;;;;;;1.03;1.03;;;;;;;9.57;63.14;95019.56;4366206;32;20184;-61
2023/01/08 00:28:19;;;;;;;0.73;0.73;;;;;;;8.93;64.44;95020.47;4379416;32;20177;-61
2023/01/08 00:30:44;;;;;;;1.57;1.47;;;;;;;8.37;65.78;95028.44;4382432;32;20222;-60
2023/01/08 00:33:10;;;;;;;1.20;1.20;;;;;;;7.66;67.47;95018.78;4377717;32;20215;-61
2023/01/08 00:35:39;;;;;;;0.83;0.83;;;;;;;7.21;70.53;95010.28;4387847;32;20184;-60
2023/01/08 00:38:05;;;;;;;2.23;1.40;;;;;;;6.38;72.57;95006.00;4376118;32;20404;-61
2023/01/08 00:40:33;;;;;;;2.47;1.57;;;;;;;6.01;74.75;95011.75;4365875;32;20330;-61
2023/01/08 00:42:58;;;;;;;0.87;0.80;;;;;;;5.93;75.47;95007.06;4385559;32;20268;-60
2023/01/08 00:45:24;;;;;;;0.97;0.60;;;;;;;6.31;74.03;95004.72;4390023;32;20291;-61
2023/01/08 00:47:50;;;;;;;0.60;0.60;;;;;;;6.36;73.09;95004.69;4389793;32;20215;-61
2023/01/08 00:50:16;;;;;;;0.90;0.90;;;;;;;5.94;74.59;94999.94;4390140;32;20227;-60
2023/01/08 00:52:41;;;;;;;0.30;0.30;;;;;;;5.93;75.00;95007.06;4380086;32;20295;-60
2023/01/08 00:55:07;;;;;;;1.03;1.03;;;;;;;5.53;76.10;94995.63;4391962;32;20191;-60
2023/01/08 00:57:36;;;;;;;0.93;0.87;;;;;;;5.33;76.56;94981.75;4383662;32;20181;-61
2023/01/08 01:00:03;;;;;;;0.77;0.77;;;;;;;5.27;77.06;94982.81;4369629;32;20173;-60
2023/01/08 01:02:29;;;;;;;0.30;0.30;;;;;;;4.87;78.68;94979.25;4382555;32;20277;-61
2023/01/08 01:04:54;;;;;;;0.67;0.67;;;;;;;4.59;79.73;94977.16;4368412;32;20295;-61
2023/01/08 01:07:19;;;;;;;1.03;1.03;;;;;;;4.37;80.69;94972.97;4353969;32;20180;-60
2023/01/08 01:09:45;;;;;;;0.93;0.93;;;;;;;4.24;81.10;94975.34;4361317;32;20185;-60
2023/01/08 01:12:10;;;;;;;1.17;1.17;;;;;;;4.14;81.38;94969.03;4374320;32;20181;-61
2023/01/08 01:14:42;;;;;;;0.37;0.37;;;;;;;4.41;80.89;94974.03;4357301;32;20197;-61
2023/01/08 01:17:07;;;;;;;1.30;1.20;;;;;;;4.64;79.47;94979.78;4387681;32;20183;-60
2023/01/08 01:19:32;;;;;;;0.53;0.53;;;;;;;5.04;77.78;94997.34;4388229;32;20303;-61
2023/01/08 01:21:58;;;;;;;1.80;1.43;;;;;;;4.89;77.63;94994.75;4389519;32;20239;-60
2023/01/08 01:24:24;;;;;;;1.07;1.07;;;;;;;4.94;78.07;94998.16;4388792;32;20180;-60
2023/01/08 01:26:50;;;;;;;1.17;1.10;;;;;;;5.17;77.33;94996.81;4374032;32;20222;-60
2023/01/08 01:29:16;;;;;;;0.70;0.70;;;;;;;5.30;76.45;95009.37;4387711;32;20254;-60
2023/01/08 01:31:42;;;;;;;0.70;0.70;;;;;;;5.40;75.80;95006.72;4382626;32;20304;-61
2023/01/08 01:34:08;;;;;;;0.47;0.47;;;;;;;5.15;76.35;95006.78;4383219;32;20221;-60
2023/01/08 01:36:33;;;;;;;0.90;0.90;;;;;;;5.34;76.16;95010.44;4377338;32;20207;-60
2023/01/08 01:38:59;;;;;;;1.23;1.23;;;;;;;5.50;75.17;95017.22;4388091;32;20476;-60
2023/01/08 01:41:52;;;;;;;2.47;1.17;;;;;;;5.50;74.98;95004.06;4375766;32;20195;-60
2023/01/08 01:44:34;;;;;;;0.70;0.70;;;;;;;5.38;75.33;95003.59;4378051;32;20185;-60
2023/01/08 01:47:24;;;;;;;1.00;1.00;;;;;;;5.37;75.48;94993.31;4366981;32;20365;-60
2023/01/08 01:49:56;;;;;;;1.80;1.17;;;;;;;5.44;75.44;94991.19;4375540;32;20298;-60
2023/01/08 01:52:24;;;;;;;0.30;0.30;;;;;;;5.44;75.38;94994.59;4386549;32;20289;-60
2023/01/08 01:54:51;;;;;;;1.57;1.47;;;;;;;5.65;74.60;94997.16;4375155;32;20286;-60
2023/01/08 01:57:17;;;;;;;0.70;0.63;;;;;;;5.24;76.08;94999.91;4388642;32;20343;-60
2023/01/08 01:59:46;;;;;;;1.50;1.40;;;;;;;5.25;76.44;94996.25;4375083;32;20289;-60
2023/01/08 02:02:11;;;;;;;0.53;0.43;;;;;;;5.15;76.63;94989.19;4384851;32;20184;-61
2023/01/08 02:04:37;;;;;;;0.30;0.30;;;;;;;5.13;77.11;94991.28;4377283;32;20325;-60
2023/01/08 02:07:15;;;;;;;1.07;0.83;;;;;;;5.20;76.94;94979.72;4376513;32;20181;-60
2023/01/08 02:09:59;;;;;;;0.73;0.67;;;;;;;5.08;77.24;94970.25;4351060;32;20185;-61
2023/01/08 02:12:50;;;;;;;0.90;0.90;;;;;;;5.37;76.42;94970.44;4366565;32;20295;-61
2023/01/08 02:15:22;;;;;;;0.90;0.90;;;;;;;5.44;75.73;94963.03;4359922;32;20348;-61
2023/01/08 02:17:59;;;;;;;1.10;0.90;;;;;;;5.46;75.40;94966.19;4390725;32;20315;-61
2023/01/08 02:20:39;;;;;;;3.30;1.13;;;;;;;5.30;75.70;94967.31;4378180;32;20287;-60
2023/01/08 02:23:40;;;;;;;0.70;0.70;;;;;;;5.41;75.09;94965.41;4373226;32;20285;-60
2023/01/08 02:26:14;;;;;;;0.70;0.70;;;;;;;5.43;75.26;94947.53;4363629;32;20290;-60
2023/01/08 02:28:57;;;;;;;0.37;0.37;;;;;;;5.01;75.75;94953.19;4385918;32;20341;-64
2023/01/08 02:31:24;;;;;;;0.50;0.50;;;;;;;4.66;76.87;94949.59;4367030;32;20281;-60
2023/01/08 02:33:50;;;;;;;0.37;0.37;;;;;;;4.70;76.86;94940.13;4372874;32;20367;-61
2023/01/08 02:36:28;;;;;;;0.87;0.87;;;;;;;4.63;77.10;94936.97;4368993;32;20292;-60
2023/01/08 02:39:12;;;;;;;0.73;0.53;;;;;;;4.73;76.85;94929.09;4371085;32;20192;-61
2023/01/08 02:41:52;;;;;;;1.00;1.00;;;;;;;4.86;76.18;94937.47;4371976;32;20281;-61
2023/01/08 02:44:52;;;;;;;0.50;0.50;;;;;;;4.79;76.33;94941.16;4379505;32;20339;-61
2023/01/08 02:47:24;;;;;;;0.40;0.40;;;;;;;5.18;74.58;94935.28;4368229;32;20345;-60
2023/01/08 02:49:59;;;;;;;0.80;0.80;;;;;;;5.29;73.65;94936.81;4375101;32;20267;-60
2023/01/08 02:52:29;;;;;;;0.30;0.30;;;;;;;5.04;74.53;94936.88;4391328;32;20283;-60
2023/01/08 02:54:58;;;;;;;0.40;0.40;;;;;;;5.01;74.54;94934.78;4391269;32;20319;-60
2023/01/08 02:57:25;;;;;;;0.33;0.33;;;;;;;5.24;73.71;94934.19;4383411;32;20272;-60
2023/01/08 02:59:50;;;;;;;0.47;0.47;;;;;;;5.24;72.67;94936.03;4377687;32;20286;-61
2023/01/08 03:02:16;;;;;;;0.60;0.60;;;;;;;5.13;73.46;94935.28;4365741;32;20580;-61
2023/01/08 03:04:58;;;;;;;0.13;0.13;;;;;;;5.01;73.84;94932.16;4359473;32;20189;-61
2023/01/08 03:07:23;;;;;;;0.50;0.50;;;;;;;5.21;73.12;94926.84;4378956;32;20180;-61
2023/01/08 03:09:49;;;;;;;0.73;0.63;;;;;;;5.00;73.90;94925.31;4371198;32;20302;-60
2023/01/08 03:12:32;;;;;;;1.00;1.00;;;;;;;5.10;73.80;94923.47;4372188;32;20181;-61
2023/01/08 03:15:03;;;;;;;0.30;0.30;;;;;;;5.35;72.20;94913.91;4377743;32;20230;-60
2023/01/08 03:17:35;;;;;;;1.00;0.87;;;;;;;5.32;71.92;94915.22;4366207;32;20300;-61
2023/01/08 03:20:12;;;;;;;0.97;0.80;;;;;;;5.37;71.99;94912.59;4367933;32;20290;-61
2023/01/08 03:22:40;;;;;;;0.30;0.30;;;;;;;5.39;71.73;94915.75;4379452;32;20268;-61
2023/01/08 03:25:07;;;;;;;0.40;0.40;;;;;;;5.16;72.69;94908.47;4391567;32;20379;-61
2023/01/08 03:27:40;;;;;;;0.30;0.30;;;;;;;5.12;72.29;94896.91;4385062;32;20281;-61
2023/01/08 03:30:08;;;;;;;0.33;0.33;;;;;;;4.91;72.91;94895.41;4370873;32;20369;-60
2023/01/08 03:32:35;;;;;;;0.87;0.87;;;;;;;4.82;72.52;94895.94;4361007;32;20364;-61
2023/01/08 03:35:04;;;;;;;0.50;0.50;;;;;;;4.71;73.52;94904.13;4369105;32;20296;-61
2023/01/08 03:37:35;;;;;;;0.40;0.40;;;;;;;4.86;73.15;94884.91;4360774;32;20382;-60
2023/01/08 03:40:06;;;;;;;0.40;0.40;;;;;;;4.92;72.76;94886.47;4385589;32;20287;-61
2023/01/08 03:42:32;;;;;;;0.40;0.40;;;;;;;4.69;73.13;94888.63;4377921;32;20376;-61
2023/01/08 03:45:01;;;;;;;0.10;0.10;;;;;;;4.74;73.05;94882.59;4367694;32;20264;-61
2023/01/08 03:47:29;;;;;;;0.10;0.10;;;;;;;4.78;72.78;94875.75;4354036;32;20208;-61
2023/01/08 03:49:59;;;;;;;0.50;0.50;;;;;;;4.91;72.25;94877.00;4369029;32;20360;-58
2023/01/08 03:52:27;;;;;;;0.47;0.47;;;;;;;4.88;72.48;94870.44;4367098;32;20277;-57
2023/01/08 03:54:52;;;;;;;0.60;0.60;;;;;;;4.64;73.23;94865.00;4385786;32;20280;-57
2023/01/08 03:57:18;;;;;;;0.00;0.00;;;;;;;4.74;73.21;94862.38;4349641;32;20282;-57
2023/01/08 03:59:43;;;;;;;0.37;0.37;;;;;;;4.95;72.08;94864.91;4362252;32;20248;-57
2023/01/08 04:02:09;;;;;;;0.23;0.23;;;;;;;4.79;71.92;94851.81;4371424;32;20199;-61
2023/01/08 04:04:34;;;;;;;0.50;0.50;;;;;;;4.78;72.71;94852.88;4388080;32;20180;-61
2023/01/08 04:07:00;;;;;;;0.33;0.33;;;;;;;4.73;72.42;94847.66;4389480;32;20192;-60
2023/01/08 04:09:25;;;;;;;0.30;0.30;;;;;;;4.86;72.57;94850.75;4387006;32;20180;-61
2023/01/08 04:11:51;;;;;;;0.20;0.20;;;;;;;4.93;71.60;94844.16;4390741;32;20260;-61
2023/01/08 04:14:17;;;;;;;0.57;0.57;;;;;;;4.97;71.50;94845.19;4376451;32;20219;-61
2023/01/08 04:16:43;;;;;;;0.47;0.47;;;;;;;4.72;72.39;94847.91;4381748;32;20185;-60
2023/01/08 04:19:10;;;;;;;0.20;0.20;;;;;;;4.71;73.18;94841.87;4372727;32;20280;-60
2023/01/08 04:21:37;;;;;;;0.67;0.60;;;;;;;4.52;73.61;94842.72;4390517;32;20229;-60
2023/01/08 04:24:03;;;;;;;0.03;0.03;;;;;;;4.77;72.61;94835.56;4366463;32;20359;-61
2023/01/08 04:26:29;;;;;;;0.10;0.10;;;;;;;4.87;72.14;94839.97;4374851;32;20398;-61
2023/01/08 04:28:54;;;;;;;0.20;0.20;;;;;;;5.03;71.17;94838.06;4371130;32;20280;-61
2023/01/08 04:31:20;;;;;;;0.20;0.20;;;;;;;4.93;71.64;94838.12;4385214;32;20192;-61
2023/01/08 04:33:46;;;;;;;0.10;0.10;;;;;;;5.01;71.48;94837.53;4389313;32;20229;-61
2023/01/08 04:36:12;;;;;;;0.20;0.20;;;;;;;4.83;71.66;94834.47;4378302;32;20233;-61
2023/01/08 04:38:37;;;;;;;0.20;0.20;;;;;;;5.01;71.43;94834.91;4382013;32;20283;-61
2023/01/08 04:41:04;;;;;;;0.23;0.23;;;;;;;4.69;72.73;94838.72;4354860;32;20172;-61
2023/01/08 04:43:30;;;;;;;0.17;0.17;;;;;;;4.86;72.72;94832.34;4357138;32;20252;-61
2023/01/08 04:46:00;;;;;;;0.73;0.60;;;;;;;4.86;72.49;94832.34;4383234;32;20291;-61
2023/01/08 04:48:27;;;;;;;0.43;0.43;;;;;;;4.89;72.27;94827.34;4350649;32;20274;-61
2023/01/08 04:50:52;;;;;;;0.13;0.13;;;;;;;4.71;72.56;94822.69;4369715;32;20264;-61
2023/01/08 04:53:18;;;;;;;0.23;0.23;;;;;;;4.37;74.26;94817.25;4376229;32;20298;-61
2023/01/08 04:55:45;;;;;;;0.50;0.50;;;;;;;4.42;74.50;94817.25;4355860;32;20199;-61
2023/01/08 04:58:11;;;;;;;0.47;0.47;;;;;;;4.50;74.11;94814.09;4375799;32;20203;-62
2023/01/08 05:00:38;;;;;;;2.73;0.53;;;;;;;4.20;74.67;94807.06;4391549;32;20300;-61
2023/01/08 05:03:03;;;;;;;0.53;0.53;;;;;;;4.13;75.24;94804.75;4364095;32;20236;-61
2023/01/08 05:05:29;;;;;;;0.50;0.50;;;;;;;4.36;74.44;94802.59;4370291;32;20356;-61
2023/01/08 05:07:54;;;;;;;0.70;0.70;;;;;;;4.20;74.59;94814.94;4379185;32;20195;-61
2023/01/08 05:10:19;;;;;;;0.60;0.60;;;;;;;4.44;74.07;94809.91;4375809;32;20207;-61
2023/01/08 05:12:44;;;;;;;1.13;0.87;;;;;;;4.17;74.53;94809.44;4375556;32;20200;-61
2023/01/08 05:15:10;;;;;;;0.20;0.20;;;;;;;4.28;74.44;94805.75;4374736;32;20192;-62
2023/01/08 05:17:36;;;;;;;0.73;0.20;;;;;;;4.16;74.66;94811.28;4372985;32;20185;-61
2023/01/08 05:20:02;;;;;;;0.10;0.10;;;;;;;4.27;74.19;94804.97;4371671;32;20196;-61
2023/01/08 05:22:27;;;;;;;0.20;0.20;;;;;;;4.36;74.14;94805.22;4359717;32;20284;-61
2023/01/08 05:24:54;;;;;;;0.40;0.37;;;;;;;3.97;75.34;94800.53;4382302;32;20201;-61
2023/01/08 05:27:19;;;;;;;0.20;0.20;;;;;;;3.90;75.47;94804.50;4375799;32;20189;-61
2023/01/08 05:29:47;;;;;;;0.30;0.30;;;;;;;4.00;75.70;94804.47;4382074;32;20322;-61
2023/01/08 05:32:15;;;;;;;0.63;0.40;;;;;;;4.36;74.48;94789.47;4364776;32;20178;-61
2023/01/08 05:34:40;;;;;;;0.50;0.40;;;;;;;4.47;73.40;94781.28;4365329;32;20273;-61
2023/01/08 05:37:06;;;;;;;0.20;0.20;;;;;;;4.43;73.65;94782.06;4368923;32;20405;-61
2023/01/08 05:39:31;;;;;;;0.30;0.30;;;;;;;4.53;73.26;94782.06;4373701;32;20275;-61
2023/01/08 05:41:58;;;;;;;0.60;0.60;;;;;;;4.37;74.23;94778.66;4389111;32;20272;-61
2023/01/08 05:44:24;;;;;;;0.40;0.40;;;;;;;4.25;74.34;94793.16;4387687;32;20180;-61
2023/01/08 05:46:52;;;;;;;0.20;0.20;;;;;;;4.14;75.40;94790.56;4334400;32;20288;-61
2023/01/08 05:49:17;;;;;;;2.10;0.50;;;;;;;4.29;74.72;94791.56;4366201;32;20212;-61
2023/01/08 05:51:43;;;;;;;0.43;0.43;;;;;;;4.56;73.40;94786.00;4368247;32;20308;-61
2023/01/08 05:54:08;;;;;;;0.30;0.20;;;;;;;4.23;74.16;94782.91;4377847;32;20203;-61
2023/01/08 05:56:33;;;;;;;0.30;0.30;;;;;;;4.36;74.35;94776.34;4362629;32;20242;-61
2023/01/08 05:58:59;;;;;;;0.20;0.20;;;;;;;4.06;75.10;94777.97;4387107;32;22453;-60
2023/01/08 06:01:24;;;;;;;0.30;0.30;;;;;;;4.41;74.48;94773.69;4365426;32;20180;-61
2023/01/08 06:03:49;;;;;;;0.20;0.20;;;;;;;4.41;74.00;94778.94;4381542;32;20222;-61
2023/01/08 06:06:15;;;;;;;0.30;0.30;;;;;;;4.45;74.04;94785.22;4382065;32;20199;-60
2023/01/08 06:08:41;;;;;;;0.40;0.40;;;;;;;4.69;72.97;94790.66;4381583;32;20210;-61
2023/01/08 06:11:07;;;;;;;0.20;0.20;;;;;;;4.62;72.88;94788.31;4374223;32;20185;-61
2023/01/08 06:13:34;;;;;;;0.87;0.60;;;;;;;4.83;71.89;94792.41;4383416;32;20211;-61
2023/01/08 06:16:00;;;;;;;0.30;0.30;;;;;;;4.70;72.54;94798.28;4383103;32;20318;-63
2023/01/08 06:18:28;;;;;;;0.33;0.33;;;;;;;4.59;72.94;94801.97;4371649;32;20288;-61
2023/01/08 06:20:55;;;;;;;0.20;0.20;;;;;;;4.68;72.57;94800.38;4367978;32;20280;-60
2023/01/08 06:23:20;;;;;;;0.20;0.20;;;;;;;4.76;72.52;94791.94;4361515;32;20273;-61
2023/01/08 06:25:57;;;;;;;0.40;0.40;;;;;;;4.67;72.71;94798.00;4390122;32;20371;-61
2023/01/08 06:28:23;;;;;;;0.20;0.20;;;;;;;4.69;73.00;94801.94;4368025;32;20188;-61
2023/01/08 06:30:49;;;;;;;0.20;0.20;;;;;;;4.82;72.21;94796.09;4350441;32;20291;-61
2023/01/08 06:33:17;;;;;;;0.10;0.10;;;;;;;4.79;72.50;94801.91;4369627;32;20195;-61
2023/01/08 06:35:42;;;;;;;0.20;0.20;;;;;;;4.85;72.06;94784.28;4391631;32;20202;-61
2023/01/08 06:38:08;;;;;;;0.33;0.33;;;;;;;4.87;71.70;94797.13;4344697;32;20277;-61
2023/01/08 06:40:33;;;;;;;0.40;0.40;;;;;;;4.80;72.14;94792.97;4357677;32;20185;-60
2023/01/08 06:43:03;;;;;;;0.10;0.10;;;;;;;5.04;71.46;94792.31;4383226;32;20188;-61
2023/01/08 06:45:29;;;;;;;0.30;0.30;;;;;;;4.94;71.77;94784.50;4375327;32;20193;-61
2023/01/08 06:47:54;;;;;;;0.17;0.17;;;;;;;4.91;72.31;94800.81;4369679;32;20307;-61
2023/01/08 06:50:20;;;;;;;0.20;0.20;;;;;;;4.83;72.74;94802.94;4379468;32;20215;-61
2023/01/08 06:52:53;;;;;;;0.23;0.23;;;;;;;4.85;72.82;94789.53;4376757;32;20180;-61
2023/01/08 06:55:19;;;;;;;0.53;0.20;;;;;;;4.91;72.74;94793.72;4375950;32;20177;-61
2023/01/08 06:57:44;;;;;;;0.77;0.77;;;;;;;4.92;72.38;94789.25;4369879;32;20277;-61
2023/01/08 07:00:10;;;;;;;0.30;0.30;;;;;;;5.01;72.20;94798.13;4376135;32;20290;-61
2023/01/08 07:02:38;;;;;;;0.40;0.40;;;;;;;5.08;71.80;94804.66;4388827;32;20309;-60
2023/01/08 07:05:03;;;;;;;0.43;0.43;;;;;;;5.02;71.69;94805.72;4379806;32;20264;-61
2023/01/08 07:07:29;;;;;;;0.33;0.33;;;;;;;4.98;71.73;94812.59;4367798;32;20277;-61
2023/01/08 07:09:54;;;;;;;5.70;0.60;;;;;;;4.90;71.95;94810.53;4369569;32;20204;-61
2023/01/08 07:12:19;;;;;;;0.37;0.37;;;;;;;4.84;72.26;94814.22;4375015;32;20184;-61
2023/01/08 07:14:45;;;;;;;0.77;0.77;;;;;;;5.10;71.64;94817.53;4359791;32;20191;-61
2023/01/08 07:17:10;;;;;;;0.50;0.50;;;;;;;4.96;72.20;94812.09;4372120;32;20184;-63
2023/01/08 07:19:38;;;;;;;0.53;0.53;;;;;;;4.87;72.59;94808.44;4384810;32;20222;-61
2023/01/08 07:22:03;;;;;;;0.53;0.53;;;;;;;5.01;72.41;94814.66;4364331;32;20230;-61
2023/01/08 07:24:29;;;;;;;0.57;0.57;;;;;;;4.94;73.02;94818.66;4365652;32;20317;-60
2023/01/08 07:26:54;;;;;;;0.23;0.23;;;;;;;4.98;72.85;94820.50;4374361;32;20211;-60
2023/01/08 07:29:19;;;;;;;0.33;0.33;;;;;;;4.91;73.35;94820.00;4330949;32;20194;-61
2023/01/08 07:31:45;;;;;;;0.53;0.53;;;;;;;4.98;73.12;94811.81;4374491;32;20310;-60
2023/01/08 07:34:10;;;;;;;0.60;0.30;;;;;;;5.06;72.73;94813.88;4363649;32;20212;-61
2023/01/08 07:36:36;;;;;;;0.47;0.47;;;;;;;5.19;72.57;94813.28;4379597;32;20187;-60
2023/01/08 07:39:03;;;;;;;0.40;0.40;;;;;;;5.07;73.29;94813.59;4384412;32;20180;-60
2023/01/08 07:41:28;;;;;;;0.50;0.50;;;;;;;5.33;72.28;94811.63;4357861;32;20231;-61
2023/01/08 07:43:53;;;;;;;0.57;0.57;;;;;;;5.25;72.44;94806.91;4345665;32;20303;-60
2023/01/08 07:46:19;;;;;;;0.50;0.50;;;;;;;5.27;72.26;94796.91;4372586;32;20184;-60
2023/01/08 07:48:45;;;;;;;0.33;0.33;;;;;;;5.18;73.30;94798.56;4367371;32;20210;-60
2023/01/08 07:51:10;;;;;;;0.47;0.47;;;;;;;5.34;72.45;94799.25;4378859;32;20176;-61
2023/01/08 07:53:36;;;;;;;0.20;0.20;;;;;;;5.37;72.45;94796.88;4378009;32;20322;-61
2023/01/08 07:56:07;;;;;;;0.17;0.17;;;;;;;5.15;73.05;94805.16;4336158;32;20182;-61
2023/01/08 07:58:33;;;;;;;0.43;0.43;;;;;;;5.02;73.59;94799.69;4381832;32;20181;-61
2023/01/08 08:00:59;;;;;;;0.60;0.60;;;;;;;5.03;74.18;94802.03;4378069;32;20291;-61
2023/01/08 08:03:24;;;;;;;0.50;0.50;;;;;;;5.20;73.45;94799.06;4369701;32;20173;-61
2023/01/08 08:05:50;;;;;;;0.60;0.60;;;;;;;5.33;72.86;94798.47;4378381;32;20189;-61
2023/01/08 08:08:17;;;;;;;0.90;0.90;;;;;;;5.49;72.31;94794.66;4377887;32;20203;-61
2023/01/08 08:10:43;;;;;;;0.37;0.37;;;;;;;5.42;72.60;94794.19;4367840;32;20287;-60
2023/01/08 08:13:09;;;;;;;0.30;0.30;;;;;;;5.53;71.67;94798.34;4378352;32;20371;-61
2023/01/08 08:15:35;;;;;;;0.83;0.60;;;;;;;5.55;71.27;94789.38;4378051;32;20211;-60
2023/01/08 08:18:05;;;;;;;0.47;0.47;;;;;;;5.66;71.10;94793.50;4376486;32;20390;-62
2023/01/08 08:20:30;;;;;;;0.93;0.57;;;;;;;5.21;72.80;94787.47;4356440;32;20364;-63
2023/01/08 08:23:00;;;;;;;0.60;0.60;;;;;;;5.28;72.61;94787.97;4362771;32;20330;-64
2023/01/08 08:25:26;;;;;;;0.60;0.60;;;;;;;5.22;72.59;94799.56;4369612;32;20221;-63
2023/01/08 08:27:51;;;;;;;0.67;0.60;;;;;;;5.63;71.03;94800.09;4378228;32;20285;-63
2023/01/08 08:30:16;;;;;;;0.77;0.60;;;;;;;5.67;70.73;94810.84;4376927;32;20188;-64
2023/01/08 08:32:42;;;;;;;2.23;0.93;;;;;;;5.75;70.41;94803.16;4369268;32;20180;-64
2023/01/08 08:35:08;;;;;;;0.40;0.40;;;;;;;5.84;69.66;94800.72;4395636;32;20179;-64
2023/01/08 08:37:33;;;;;;;0.70;0.70;;;;;;;5.86;69.52;94803.84;4366084;32;20185;-63
2023/01/08 08:39:58;;;;;;;0.53;0.53;;;;;;;5.74;70.56;94804.22;4372594;32;20208;-64
2023/01/08 08:42:24;;;;;;;0.97;0.80;;;;;;;5.86;69.74;94798.59;4362002;32;20172;-63
2023/01/08 08:44:49;;;;;;;0.50;0.50;;;;;;;5.91;69.41;94805.69;4367284;32;20177;-63
2023/01/08 08:47:14;;;;;;;0.27;0.27;;;;;;;6.12;68.92;94807.88;4368412;32;20260;-63
2023/01/08 08:49:40;;;;;;;0.83;0.83;;;;;;;6.24;69.23;94804.84;4377492;32;20180;-63
2023/01/08 08:52:05;;;;;;;0.53;0.53;;;;;;;6.05;69.82;94806.62;4373103;32;20192;-63
2023/01/08 08:54:31;;;;;;;0.37;0.37;;;;;;;5.96;69.36;94811.72;4368894;32;20277;-64
2023/01/08 08:56:56;;;;;;;0.47;0.47;;;;;;;6.15;68.76;94812.59;4370841;32;20207;-63
2023/01/08 08:59:21;;;;;;;0.43;0.43;;;;;;;5.99;69.04;94808.53;4368894;32;20184;-63
2023/01/08 09:01:47;;;;;;;0.77;0.23;;;;;;;5.87;69.51;94798.31;4362802;32;20252;-64
2023/01/08 09:04:18;;;;;;;0.90;0.87;;;;;;;5.90;70.00;94794.38;4368928;32;20207;-63
2023/01/08 09:06:43;;;;;;;0.43;0.43;;;;;;;6.06;69.41;94797.66;4372379;32;20208;-64
2023/01/08 09:09:08;;;;;;;0.50;0.50;;;;;;;6.28;68.64;94797.19;4366464;32;20300;-65
2023/01/08 09:11:33;;;;;;;0.73;0.73;;;;;;;6.24;69.08;94804.84;4353802;32;20218;-65
2023/01/08 09:13:59;;;;;;;2.73;0.90;;;;;;;6.28;69.19;94811.16;4381206;32;20272;-64
2023/01/08 09:16:24;;;;;;;0.30;0.30;;;;;;;6.13;69.35;94809.44;4368626;32;20219;-65
2023/01/08 09:18:49;;;;;;;0.27;0.27;;;;;;;6.17;69.49;94812.31;4375060;32;20274;-65
2023/01/08 09:21:18;;;;;;;2.27;1.00;;;;;;;6.34;68.87;94820.56;4360062;32;20220;-64
2023/01/08 09:23:43;;;;;;;0.20;0.20;;;;;;;6.38;69.04;94823.44;4361605;32;20177;-64
2023/01/08 09:26:08;;;;;;;0.97;0.93;;;;;;;6.36;69.52;94828.19;4384469;32;20330;-65
2023/01/08 09:28:36;;;;;;;0.30;0.30;;;;;;;6.48;68.99;94824.09;4380064;32;20174;-66
2023/01/08 09:31:02;;;;;;;0.90;0.90;;;;;;;6.48;68.98;94831.22;4364897;32;20180;-65
2023/01/08 09:33:28;;;;;;;0.43;0.43;;;;;;;6.56;68.72;94828.00;4373362;32;20417;-69
2023/01/08 09:35:54;;;;;;;0.20;0.20;;;;;;;7.73;93.34;94815.94;4364218;32;20196;-70
2023/01/08 09:38:19;;;;;;;0.23;0.23;;;;;;;8.13;89.81;94819.78;4377533;32;20276;-70
2023/01/08 09:40:57;;;;;;;0.43;0.43;;;;;;;8.44;85.30;94828.00;4370138;32;20180;-69
2023/01/08 09:43:25;;;;;;;5.23;0.97;;;;;;;9.18;88.49;94818.09;4389012;32;20234;-70
2023/01/08 09:46:00;;;;;;;0.77;0.77;;;;;;;8.84;80.82;94821.97;4387490;32;20322;-70
2023/01/08 09:48:32;;;;;;;0.60;0.60;;;;;;;8.88;80.93;94816.88;4387720;32;20371;-71
2023/01/08 09:50:57;;;;;;;1.47;0.70;;;;;;;8.98;80.63;94821.94;4373415;32;20273;-71
2023/01/08 09:53:23;;;;;;;0.63;0.63;;;;;;;9.16;76.91;94813.09;4373002;32;20296;-66
2023/01/08 09:55:59;;;;;;;26.33;2.67;;;;;;;9.25;80.12;94805.28;4373293;32;20236;-72
2023/01/08 09:58:38;;;;;;;0.50;0.50;;;;;;;9.28;80.31;94796.75;4384835;32;20188;-71
2023/01/08 10:01:07;;;;;;;0.70;0.70;;;;;;;9.23;75.68;94779.09;4381154;32;20265;-72
2023/01/08 10:03:45;;;;;;;0.73;0.73;;;;;;;9.53;78.54;94772.34;4364160;32;20280;-71
2023/01/08 10:06:12;;;;;;;0.53;0.53;;;;;;;9.52;76.66;94762.06;4376008;32;20386;-66
2023/01/08 10:08:38;;;;;;;0.60;0.60;;;;;;;9.63;70.56;94766.03;4343518;32;20363;-70
2023/01/08 10:11:05;;;;;;;0.20;0.20;;;;;;;9.70;71.68;94773.56;4355890;32;20184;-71
2023/01/08 10:13:33;;;;;;;0.77;0.77;;;;;;;9.79;69.54;94772.53;4371589;32;20260;-68
2023/01/08 10:15:59;;;;;;;0.50;0.50;;;;;;;10.15;69.52;94774.31;4362977;32;20223;-71
2023/01/08 10:18:26;;;;;;;1.37;0.60;;;;;;;10.38;68.42;94767.16;4360466;32;20234;-70
2023/01/08 10:20:52;;;;;;;0.20;0.20;;;;;;;10.70;68.39;94764.13;4368496;32;20188;-70
2023/01/08 10:23:21;;;;;;;0.53;0.53;;;;;;;10.73;66.24;94758.22;4373670;32;20216;-70
2023/01/08 10:25:52;;;;;;;1.10;0.57;;;;;;;10.98;nan;94770.00;4360952;32;20180;-71
2023/01/08 10:28:20;;;;;;;0.40;0.40;;;;;;;11.31;66.36;94768.50;4363084;32;20193;-71
2023/01/08 10:30:46;;;;;;;0.30;0.30;;;;;;;11.56;65.18;94774.91;4355009;32;20200;-70
2023/01/08 10:33:25;;;;;;;0.93;0.67;;;;;;;11.71;64.67;94771.00;4364624;32;20188;-69
2023/01/08 10:36:05;;;;;;;0.30;0.30;;;;;;;11.78;66.20;94771.34;4355507;32;20184;-70
2023/01/08 10:38:37;;;;;;;0.20;0.20;;;;;;;11.94;63.34;94763.66;4355483;32;20259;-70
2023/01/08 10:41:06;;;;;;;0.10;0.10;;;;;;;12.24;62.10;94761.88;4364874;32;20203;-70
2023/01/08 10:43:36;;;;;;;0.63;0.63;;;;;;;12.19;61.89;94752.19;4380319;32;20204;-70
2023/01/08 10:46:35;;;;;;;2.53;1.03;;;;;;;12.35;61.44;94750.56;4373185;32;20272;-71
2023/01/08 10:49:02;;;;;;;0.20;0.20;;;;;;;12.36;61.92;94752.16;4374820;32;21598;-70
2023/01/08 10:51:31;;;;;;;0.83;0.83;;;;;;;12.57;60.88;94756.75;4384565;32;20208;-70
2023/01/08 10:53:59;;;;;;;0.80;0.80;;;;;;;12.65;60.13;94753.28;4379864;32;20223;-71
2023/01/08 10:56:30;;;;;;;0.70;0.63;;;;;;;12.86;60.33;94756.81;4383821;32;20226;-70
2023/01/08 10:58:56;;;;;;;2.50;0.70;;;;;;;12.41;54.86;94750.41;4378097;32;20184;-70
2023/01/08 11:01:25;;;;;;;0.43;0.43;;;;;;;12.68;57.70;94752.62;4360356;32;20237;-70
2023/01/08 11:03:56;;;;;;;4.03;0.50;;;;;;;12.89;57.50;94750.81;4372730;32;20202;-70
2023/01/08 11:06:26;;;;;;;0.13;0.13;;;;;;;12.74;58.75;94751.34;4385903;32;20187;-70
2023/01/08 11:08:58;;;;;;;0.43;0.43;;;;;;;12.23;59.37;94747.81;4383169;32;20184;-70
2023/01/08 11:11:32;;;;;;;0.20;0.20;;;;;;;12.68;59.77;94749.97;4343854;32;20203;-70
2023/01/08 11:13:59;;;;;;;0.87;0.87;;;;;;;12.88;60.29;94753.81;4370747;32;20283;-70
2023/01/08 11:16:36;;;;;;;2.53;0.90;;;;;;;12.86;57.47;94756.00;4370546;32;20168;-66
2023/01/08 11:19:02;;;;;;;0.83;0.83;;;;;;;12.01;51.47;94763.97;4374469;32;20250;-67
2023/01/08 11:21:30;;;;;;;0.57;0.57;;;;;;;11.53;51.99;94764.91;4384407;32;20175;-67
2023/01/08 11:24:17;;;;;;;1.07;0.70;;;;;;;10.87;54.41;94761.53;4357698;32;20185;-67
2023/01/08 11:26:50;;;;;;;1.30;0.57;;;;;;;10.45;54.48;94741.75;4340053;32;20193;-67
2023/01/08 11:29:39;;;;;;;0.70;0.70;;;;;;;10.35;56.60;94735.94;4362567;32;20177;-67
2023/01/08 11:32:22;;;;;;;0.40;0.40;;;;;;;10.13;55.56;94729.56;4373908;32;20246;-67
2023/01/08 11:34:55;;;;;;;0.77;0.57;;;;;;;9.85;57.17;94704.31;4385571;32;20210;-67
2023/01/08 11:37:27;;;;;;;0.70;0.70;;;;;;;9.93;56.99;94695.66;4363859;32;20185;-67
2023/01/08 11:39:54;;;;;;;0.40;0.40;;;;;;;9.86;56.31;94682.03;4365079;32;20184;-66
2023/01/08 11:42:22;;;;;;;0.37;0.37;;;;;;;9.76;55.27;94675.16;4359711;32;20186;-66
2023/01/08 11:45:16;;;;;;;0.37;0.37;;;;;;;9.64;55.63;94670.41;4367256;32;20181;-65
2023/01/08 11:48:12;;;;;;;0.47;0.47;;;;;;;9.53;56.72;94682.34;4339112;32;20188;-65